Aviation Digital Data Service (ADDS)

Output produced by METARs form (1412 UTC 10 July 2020)
found at http://www.aviationweather.gov/metar/data/
 
KJVW 101355Z AUTO 25007KT 10SM FEW012 BKN036 BKN041 28/28 A3002 RMK AO2
KJVW 101335Z AUTO 26007G12KT 230V290 10SM FEW012 SCT035 BKN042 28/28 A3002 RMK AO2
KJVW 101315Z AUTO 26006KT 10SM FEW011 SCT038 BKN044 28/28 A3002 RMK AO2
KJVW 101255Z AUTO 24006KT 10SM SCT043 27/27 A3001 RMK AO2
KJVW 101235Z AUTO 24004KT 10SM SCT042 SCT047 27/27 A3001 RMK AO2
KJVW 101215Z AUTO 25004KT 10SM FEW039 SCT047 26/26 A3001 RMK AO2
KJVW 101155Z AUTO VRB04KT 10SM BKN039 BKN047 26/26 A3000 RMK AO2
KJVW 101135Z AUTO 00000KT 10SM BKN038 BKN045 26/26 A3000 RMK AO2
KJVW 101115Z AUTO 26004KT 10SM BKN037 OVC042 26/26 A2999 RMK AO2
KJVW 101055Z AUTO 24006KT 10SM BKN040 BKN048 26/26 A2999 RMK AO2
KJVW 101035Z AUTO 24005KT 10SM BKN041 26/26 A2999 RMK AO2
KJVW 101015Z AUTO 25003KT 10SM BKN041 BKN047 26/26 A2998 RMK AO2 LTG DSNT E
KJVW 100955Z AUTO 00000KT 10SM OVC041 26/26 A2997 RMK AO2
KJVW 100935Z AUTO 24003KT 10SM SCT043 26/26 A2997 RMK AO2
KJVW 100915Z AUTO 00000KT 10SM CLR 26/26 A2996 RMK AO2
KJVW 100855Z AUTO VRB04KT 10SM CLR 26/26 A2996 RMK AO2
KJVW 100835Z AUTO 24004KT 10SM CLR 26/26 A2996 RMK AO2
KJVW 100815Z AUTO 24004KT 10SM CLR 26/26 A2996 RMK AO2
KJVW 100755Z AUTO 26003KT 10SM CLR 26/26 A2996 RMK AO2
KJVW 100735Z AUTO 25004KT 10SM CLR 26/26 A2995 RMK AO2
KJVW 100715Z AUTO 24004KT 10SM CLR 26/26 A2995 RMK AO2
KJVW 100655Z AUTO 00000KT 6SM BR CLR 25/25 A2995 RMK AO2
KJVW 100635Z AUTO 00000KT 10SM CLR 25/25 A2995 RMK AO2
KJVW 100615Z AUTO 00000KT 10SM CLR 26/26 A2995 RMK AO2
KJVW 100555Z AUTO 00000KT 10SM CLR 25/25 A2994 RMK AO2
KJVW 100535Z AUTO 00000KT 10SM CLR 25/25 A2994 RMK AO2
KJVW 100515Z AUTO 00000KT 10SM CLR 26/26 A2994 RMK AO2
KJVW 100455Z AUTO 00000KT 10SM CLR 26/26 A2994 RMK AO2
KJVW 100435Z AUTO 00000KT 10SM CLR 26/26 A2993 RMK AO2
KJVW 100415Z AUTO 00000KT 10SM CLR 25/25 A2993 RMK AO2
KJVW 100355Z AUTO 00000KT 10SM CLR 26/26 A2993 RMK AO2
KJVW 100335Z AUTO 00000KT 10SM CLR 26/26 A2992 RMK AO2
KJVW 100315Z AUTO 00000KT 10SM CLR 26/26 A2992 RMK AO2
KJVW 100255Z AUTO 00000KT 10SM CLR 26/26 A2992 RMK AO2
KJVW 100235Z AUTO 10SM CLR 26/26 A2991 RMK AO2
KJVW 100215Z AUTO 00000KT 10SM CLR 26/26 A2991 RMK AO2
KJVW 100155Z AUTO 00000KT 10SM -DZ CLR 26/26 A2991 RMK AO2
KJVW 100135Z AUTO 10SM 27/27 A2990 RMK AO2
KJVW 100115Z AUTO 00000KT 10SM 27/27 A2991 RMK AO2
KJVW 100055Z AUTO 00000KT 10SM 28/28 A2991 RMK AO2
KJVW 100035Z AUTO 00000KT 10SM 30/30 A2991 RMK AO2
KJVW 100015Z AUTO 22003KT 10SM 32/30 A2991 RMK AO2
KJVW 092355Z AUTO 23004KT 10SM 32/30 A2992 RMK AO2
KJVW 092335Z AUTO 24006KT 10SM 32/29 A2992 RMK AO2
KJVW 092315Z AUTO 26005KT 10SM 32/29 A2993 RMK AO2
KJVW 092255Z AUTO 25005G12KT 10SM 32/29 A2993 RMK AO2
KJVW 092235Z AUTO 27010KT 10SM 33/29 A2993 RMK AO2
KJVW 092215Z AUTO 26008KT 10SM 33/29 A2993 RMK AO2
KJVW 092155Z AUTO 28007KT 240V300 10SM 33/29 A2993 RMK AO2
KJVW 092135Z AUTO 24008KT 10SM 33/29 A2994 RMK AO2
KJVW 092115Z AUTO VRB06KT 10SM 33/29 A2993 RMK AO2
KJVW 092055Z AUTO 24010KT 10SM 32/29 A2993 RMK AO2
KJVW 092035Z AUTO 28012KT 10SM 33/30 A2994 RMK AO2
KJVW 092015Z AUTO 26008G13KT 10SM 33/30 A2993 RMK AO2
KJVW 091955Z AUTO 26009KT 230V290 10SM 33/30 A2993 RMK AO2 LTG DSNT N AND NE
KJVW 091935Z AUTO 27008KT 10SM 33/31 A2994 RMK AO2 LTG DSNT N AND NE
KJVW 091915Z AUTO 25005KT 10SM 32/31 A2994 RMK AO2
KJVW 091855Z AUTO VRB04KT 10SM 32/31 A2995 RMK AO2 LTG DSNT NE
KJVW 091835Z AUTO VRB05KT 10SM 32/32 A2996 RMK AO2
KJVW 091815Z AUTO VRB05KT 10SM 32/31 A2996 RMK AO2
KJVW 091755Z AUTO VRB04KT 10SM 31/30 A2996 RMK AO2 LTG DSNT N
KJVW 091735Z AUTO 26005KT 10SM 31/31 A2995 RMK AO2
KJVW 091715Z AUTO VRB05KT 10SM 31/31 A2996 RMK AO2
KJVW 091655Z AUTO VRB05KT 10SM SCT024 SCT030 SCT047 31/31 A2997 RMK AO2
KJVW 091635Z AUTO 26005KT 10SM SCT023 31/30 A2996 RMK AO2
KJVW 091615Z AUTO 24006KT 10SM SCT023 30/30 A2997 RMK AO2
KJVW 091555Z AUTO 28006KT 10SM SCT019 SCT026 30/30 A2997 RMK AO2
KJVW 091535Z AUTO 26008KT 10SM SCT016 BKN022 BKN110 29/29 A2997 RMK AO2 LTG DSNT E
KJVW 091515Z AUTO 26007KT 10SM BKN018 BKN023 29/29 A2996 RMK AO2
KJVW 091455Z AUTO 26008KT 230V290 10SM BKN017 29/29 A2996 RMK AO2
KJVW 091435Z AUTO 27008KT 10SM SCT014 SCT018 29/29 A2996 RMK AO2
KJVW 091415Z AUTO 28009KT 10SM VCTS BKN012 28/28 A2996 RMK AO2 LTG DSNT N AND NE
KJVW 091355Z AUTO 25008G14KT 10SM BKN011 27/27 A2996 RMK AO2 LTG DSNT N AND NE
KJVW 091335Z AUTO 26008G14KT 10SM VCTS BKN010 OVC013 27/27 A2996 RMK AO2 LTG DSNT NE
KJVW 091315Z AUTO VRB05KT 10SM BKN008 OVC011 26/26 A2996 RMK AO2 LTG DSNT NE
KJVW 091255Z AUTO VRB06KT 10SM OVC007 26/26 A2996 RMK AO2 LTG DSNT N AND NE
KJVW 091235Z AUTO VRB06G11KT 10SM OVC005 26/26 A2996 RMK AO2 LTG DSNT N
KJVW 091215Z AUTO 25004KT 10SM OVC005 26/26 A2995 RMK AO2 LTG DSNT N
KJVW 091155Z AUTO 24004KT 10SM OVC005 25/25 A2995 RMK AO2 LTG DSNT N
KJVW 091135Z AUTO 24004KT 10SM OVC005 25/25 A2994 RMK AO2 LTG DSNT N
KJVW 091115Z AUTO VRB04KT 10SM OVC005 25/25 A2994 RMK AO2
KJVW 091055Z AUTO 24005KT 10SM OVC005 25/25 A2993 RMK AO2
KJVW 091035Z AUTO VRB04KT 10SM OVC006 25/25 A2993 RMK AO2
KJVW 091015Z AUTO 23005KT 10SM BKN006 OVC009 25/25 A2992 RMK AO2
KJVW 090955Z AUTO 24004KT 10SM BKN008 25/25 A2992 RMK AO2
KJVW 090935Z AUTO 23004KT 10SM FEW006 FEW009 25/25 A2992 RMK AO2
KJVW 090915Z AUTO 00000KT 10SM CLR 24/24 A2992 RMK AO2
KJVW 090855Z AUTO VRB03KT 10SM CLR 24/24 A2991 RMK AO2
KJVW 090835Z AUTO 21004KT 10SM FEW004 24/24 A2991 RMK AO2
KJVW 090815Z AUTO 22005KT 10SM SCT003 24/24 A2991 RMK AO2
KJVW 090755Z AUTO 22004KT 10SM BKN003 24/24 A2991 RMK AO2
KJVW 090735Z AUTO 22004KT 10SM BKN004 24/24 A2991 RMK AO2
KJVW 090715Z AUTO 19005KT 10SM SCT004 24/24 A2991 RMK AO2
KJVW 090655Z AUTO 19005KT 10SM FEW004 24/24 A2991 RMK AO2
KJVW 090635Z AUTO 19006KT 10SM CLR 24/24 A2992 RMK AO2
KJVW 090615Z AUTO 19003KT 10SM FEW038 FEW047 FEW065 24/24 A2992 RMK AO2
KJVW 090555Z AUTO 00000KT 10SM CLR 24/24 A2993 RMK AO2
KJVW 090535Z AUTO 00000KT 10SM FEW040 24/24 A2993 RMK AO2
KJVW 090515Z AUTO 00000KT 10SM FEW042 SCT047 24/24 A2994 RMK AO2
KJVW 090455Z AUTO 00000KT 10SM SCT043 24/24 A2994 RMK AO2
KJVW 090435Z AUTO 00000KT 10SM CLR 24/24 A2994 RMK AO2
KJVW 090415Z AUTO 00000KT 10SM CLR 24/24 A2994 RMK AO2
KJVW 090355Z AUTO 00000KT 10SM CLR 24/24 A2994 RMK AO2
KJVW 090335Z AUTO 00000KT 10SM CLR 24/24 A2994 RMK AO2
KJVW 090315Z AUTO 12003KT 10SM CLR 24/24 A2993 RMK AO2
KJVW 090255Z AUTO 00000KT 10SM CLR 24/24 A2993 RMK AO2
KJVW 090235Z AUTO 00000KT 10SM CLR 24/24 A2993 RMK AO2
KJVW 090215Z AUTO 00000KT 10SM FEW039 24/24 A2993 RMK AO2
KJVW 090155Z AUTO 00000KT 10SM CLR 24/24 A2993 RMK AO2
KJVW 090135Z AUTO 10SM CLR 25/25 A2992 RMK AO2
KJVW 090115Z AUTO 15003KT 10SM CLR 25/25 A2992 RMK AO2
KJVW 090055Z AUTO 00000KT 10SM CLR 26/26 A2992 RMK AO2
KJVW 090035Z AUTO 18005KT 10SM CLR 26/26 A2991 RMK AO2
KJVW 090015Z AUTO 17003KT 10SM CLR 27/27 A2990 RMK AO2
KJVW 082355Z AUTO 00000KT 10SM CLR 27/27 A2991 RMK AO2
KJVW 082335Z AUTO 00000KT 10SM CLR 26/26 A2992 RMK AO2
KJVW 082315Z AUTO 15003KT 10SM CLR 26/26 A2992 RMK AO2
KJVW 082255Z AUTO 15003KT 10SM CLR 26/26 A2993 RMK AO2 LTG DSNT SE AND SW AND NW
KJVW 082235Z AUTO 19004KT 10SM CLR 26/26 A2994 RMK AO2
KJVW 082215Z AUTO 17006KT 10SM CLR 26/26 A2994 RMK AO2
KJVW 082155Z AUTO 19006KT 10SM CLR 25/25 A2995 RMK AO2
KJVW 082135Z AUTO 17005KT 10SM CLR 25/25 A2994 RMK AO2
KJVW 082115Z AUTO 18004KT 10SM CLR 24/24 A2994 RMK AO2
KJVW 082055Z AUTO 00000KT 10SM CLR 24/24 A2994 RMK AO2 LTG DSNT SE-SW
KJVW 082035Z AUTO 21005KT 10SM -DZ CLR 23/23 A2995 RMK AO2 LTG DSNT SE AND S
KJVW 082015Z AUTO VRB04KT 10SM -DZ CLR 23/23 A2996 RMK AO2 LTG DSNT ALQDS
KJVW 081955Z AUTO 00000KT 10SM -DZ FEW001 FEW009 SCT033 23/23 A2994 RMK AO2 LTG DSNT SE-SW
KJVW 081935Z AUTO 26006G12KT 4SM TSRA SCT002 BKN011 OVC046 23/23 A2997 RMK AO2 LTG DSNT ALQDS
KJVW 081915Z AUTO 25012G18KT 7SM TS FEW005 SCT011 BKN026 24/24 A3000 RMK AO2 LTG DSNT ALQDS
KJVW 081855Z AUTO 00000KT 10SM TS FEW006 SCT034 BKN042 24/24 A2998 RMK AO2 LTG DSNT ALQDS
KJVW 081835Z AUTO 00000KT 10SM VCTS DZ CLR 24/24 A2998 RMK AO2 LTG DSNT SE-W
KJVW 081815Z AUTO 00000KT 10SM VCTS DZ FEW002 FEW042 24/24 A2999 RMK AO2 LTG DSNT ALQDS
KJVW 081755Z AUTO 11005KT 10SM VCTS DZ SCT002 SCT007 SCT019 23/23 A2998 RMK AO2 LTG DSNT ALQDS
KJVW 081735Z AUTO 10004KT 10SM VCTS DZ FEW030 FEW045 23/23 A2999 RMK AO2 LTG DSNT SE-W
KJVW 081715Z AUTO 00000KT 10SM TS SCT001 SCT009 SCT029 23/23 A3000 RMK AO2 LTG DSNT ALQDS
KJVW 081655Z AUTO 00000KT 2SM +TSRA BKN001 OVC009 23/23 A3001 RMK AO2
KJVW 081635Z AUTO 00000KT 2SM +TSRA BKN002 BKN010 OVC033 23/23 A3002 RMK AO2 LTG DSNT ALQDS
KJVW 081615Z AUTO VRB06G11KT 9SM -TSRA FEW001 SCT009 BKN012 23/23 A3001 RMK AO2 LTG DSNT ALQDS
KJVW 081555Z AUTO 03006KT 10SM TS BKN008 BKN014 OVC020 26/26 A3000 RMK AO2 LTG DSNT ALQDS
KJVW 081535Z AUTO 00000KT 10SM -DZ BKN008 OVC012 27/27 A3000 RMK AO2 LTG DSNT W-N
KJVW 081515Z AUTO 00000KT 10SM VCTS OVC008 26/26 A3001 RMK AO2 LTG DSNT ALQDS
KJVW 081455Z AUTO 23005KT 10SM OVC008 26/26 A3001 RMK AO2 LTG DSNT W-N
KJVW 081435Z AUTO 23006KT 10SM OVC009 26/26 A3001 RMK AO2 LTG DSNT ALQDS
KJVW 081415Z AUTO 22008KT 10SM OVC009 26/26 A3000 RMK AO2 LTG DSNT SW-NW
KJVW 081355Z AUTO 21006KT 10SM BKN007 OVC011 26/26 A2999 RMK AO2 LTG DSNT W-N
KJVW 081335Z AUTO VRB04KT 10SM OVC006 26/26 A3000 RMK AO2 LTG DSNT N AND NW
KJVW 081315Z AUTO 20005KT 10SM OVC005 25/25 A2999 RMK AO2 LTG DSNT W AND NW
KJVW 081255Z AUTO 18004KT 10SM -DZ OVC005 25/25 A2998 RMK AO2 LTG DSNT NW
KJVW 081235Z AUTO 19003KT 10SM VCTS BKN005 25/25 A2999 RMK AO2 LTG DSNT W AND NW
KJVW 081215Z AUTO 21006KT 10SM BKN005 25/25 A2998 RMK AO2 LTG DSNT W-N
KJVW 081155Z AUTO VRB05KT 10SM BKN005 25/25 A2998 RMK AO2
KJVW 081135Z AUTO 19007KT 10SM BKN006 25/25 A2998 RMK AO2 LTG DSNT NW
KJVW 081115Z AUTO 19007KT 10SM SCT006 24/24 A2998 RMK AO2 LTG DSNT NW
KJVW 081055Z AUTO 18004KT 10SM BKN006 24/24 A2998 RMK AO2 LTG DSNT NW
KJVW 081035Z AUTO 00000KT 10SM SCT008 24/24 A2998 RMK AO2
KJVW 081015Z AUTO 18004KT 10SM CLR 24/24 A2998 RMK AO2
KJVW 080955Z AUTO 19005KT 10SM CLR 24/24 A2998 RMK AO2
KJVW 080935Z AUTO 00000KT 10SM FEW014 24/24 A2998 RMK AO2
KJVW 080915Z AUTO 00000KT 10SM FEW016 24/24 A2997 RMK AO2
KJVW 080855Z AUTO 00000KT 10SM CLR 24/24 A2997 RMK AO2
KJVW 080835Z AUTO 00000KT 10SM CLR 24/24 A2997 RMK AO2
KJVW 080815Z AUTO 00000KT 10SM CLR 25/25 A2997 RMK AO2
KJVW 080755Z AUTO 00000KT 10SM CLR 25/25 A2997 RMK AO2
KJVW 080735Z AUTO 00000KT 10SM CLR 24/24 A2997 RMK AO2
KJVW 080715Z AUTO 00000KT 10SM CLR 24/24 A2997 RMK AO2
KJVW 080655Z AUTO 00000KT 10SM CLR 24/24 A2998 RMK AO2
KJVW 080635Z AUTO 00000KT 10SM CLR 24/24 A2999 RMK AO2
KJVW 080615Z AUTO 00000KT 10SM CLR 24/24 A2999 RMK AO2
KJVW 080555Z AUTO 00000KT 10SM CLR 24/24 A2999 RMK AO2
KJVW 080535Z AUTO 00000KT 10SM CLR 24/24 A2999 RMK AO2
KJVW 080515Z AUTO 00000KT 10SM CLR 24/24 A2999 RMK AO2
KJVW 080455Z AUTO 00000KT 10SM CLR 24/24 A2999 RMK AO2
KJVW 080435Z AUTO 00000KT 10SM CLR 24/24 A2999 RMK AO2
KJVW 080415Z AUTO 00000KT 10SM CLR 24/24 A2998 RMK AO2
KJVW 080355Z AUTO 00000KT 10SM CLR 24/24 A2998 RMK AO2
KJVW 080335Z AUTO 00000KT 10SM CLR 24/24 A2998 RMK AO2
KJVW 080315Z AUTO 00000KT 10SM CLR 24/24 A2998 RMK AO2
KJVW 080255Z AUTO 00000KT 10SM SCT020 24/24 A2998 RMK AO2
KJVW 080235Z AUTO 00000KT 10SM FEW021 FEW026 24/24 A2998 RMK AO2
KJVW 080215Z AUTO 00000KT 10SM CLR 25/25 A2997 RMK AO2
KJVW 080155Z AUTO 00000KT 10SM FEW032 25/25 A2997 RMK AO2
KJVW 080135Z AUTO 10SM SCT031 25/25 A2997 RMK AO2
KJVW 080115Z AUTO 10SM SCT030 25/25 A2997 RMK AO2
KJVW 080055Z AUTO 00000KT 10SM CLR 26/26 A2997 RMK AO2
KJVW 080035Z AUTO 12004KT 10SM CLR 26/26 A2996 RMK AO2
KJVW 080015Z AUTO 00000KT 10SM 26/26 A2996 RMK AO2
KJVW 072355Z AUTO VRB05KT 10SM 27/27 A2997 RMK AO2
KJVW 072335Z AUTO 00000KT 10SM 28/28 A2997 RMK AO2
KJVW 072315Z AUTO 24004KT 10SM 29/29 A2997 RMK AO2
KJVW 072255Z AUTO 25005KT 10SM 30/28 A2998 RMK AO2
KJVW 072235Z AUTO VRB04KT 10SM 31/29 A2998 RMK AO2 LTG DSNT NE
KJVW 072215Z AUTO 24008KT 10SM 31/29 A2998 RMK AO2 LTG DSNT NE AND E
KJVW 072155Z AUTO 23008KT 10SM 31/29 A2997 RMK AO2 LTG DSNT NE AND SW
KJVW 072135Z AUTO 25006KT 10SM 30/29 A2998 RMK AO2
KJVW 072115Z AUTO 26006KT 10SM 30/29 A2998 RMK AO2 LTG DSNT E AND SE
KJVW 072055Z AUTO VRB06KT 10SM 30/29 A2999 RMK AO2 LTG DSNT N-SE
KJVW 072035Z AUTO 26006KT 10SM 30/30 A2999 RMK AO2 LTG DSNT N
KJVW 072015Z AUTO VRB05G10KT 10SM 30/30 A2999 RMK AO2
KJVW 071955Z AUTO VRB04KT 10SM 31/31 A2998 RMK AO2
KJVW 071935Z AUTO 32006KT 10SM FEW015 FEW036 FEW050 30/30 A2998 RMK AO2 LTG DSNT NE AND E
KJVW 071915Z AUTO 30006KT 10SM VCTS FEW012 FEW047 FEW070 29/29 A2999 RMK AO2 LTG DSNT N AND SE
KJVW 071855Z AUTO 33004KT 10SM FEW026 SCT047 SCT075 28/28 A3000 RMK AO2 LTG DSNT E AND SE
KJVW 071835Z AUTO 30006G11KT 8SM -DZ FEW010 BKN026 BKN043 27/27 A3002 RMK AO2
KJVW 071815Z AUTO 25006KT 10SM FEW010 SCT015 SCT022 28/28 A3002 RMK AO2 LTG DSNT SE AND S
KJVW 071755Z AUTO 24007KT 10SM FEW010 SCT017 28/28 A3003 RMK AO2 LTG DSNT SE AND S
KJVW 071735Z AUTO 26005KT 10SM FEW017 FEW049 FEW095 27/27 A3003 RMK AO2
KJVW 071715Z AUTO 27003KT 10SM -DZ FEW013 FEW095 26/26 A3003 RMK AO2
KJVW 071655Z AUTO 27005KT 10SM -RA FEW001 BKN014 BKN029 26/26 A3002 RMK AO2 LTG DSNT SE AND NW
KJVW 071635Z AUTO 28007KT 10SM SCT018 BKN025 BKN034 28/28 A3002 RMK AO2
KJVW 071615Z AUTO 31007KT 280V360 10SM FEW017 SCT023 BKN031 29/29 A3002 RMK AO2
KJVW 071555Z AUTO VRB05KT 10SM BKN014 BKN021 BKN028 28/28 A3002 RMK AO2
KJVW 071535Z AUTO 30006KT 10SM BKN012 OVC017 28/28 A3003 RMK AO2
KJVW 071515Z AUTO 28008KT 10SM BKN009 BKN013 BKN019 27/27 A3003 RMK AO2 LTG DSNT SW
KJVW 071455Z AUTO 28004KT 10SM BKN008 BKN012 OVC019 26/26 A3004 RMK AO2
KJVW 071435Z AUTO 28005KT 10SM OVC008 26/26 A3003 RMK AO2
KJVW 071415Z AUTO 27006KT 10SM BKN006 OVC013 26/26 A3003 RMK AO2